Flight Track Log - Related Links

Times and Time Zones

All times are in EDT time to prevent confusion due to time zone crossing. See the SKW4502 flight status page for this flight to view local times or setup timezone preferences in your user account.

Time Position Orientation Groundspeed Altitude Reporting Facility
EDT Latitude Longitude Course Direction KTS MPH feet Rate Location/Type
Wed 05:19:07 PM 33.9456 -118.4567 301° West 154 177 1,700  Level Los Angeles Center
Wed 05:20:21 PM 33.9394 -118.5200 263° West 193 222 3,600 1,765 Climbing Los Angeles Center
Wed 05:21:00 PM 34.0378 -118.7948 285° West  Level FlightAware Approximate
Wed 05:21:23 PM 33.9278 -118.6203 262° West 253 291 5,700  Level Los Angeles Center
Wed 05:22:00 PM 34.0793 -118.9232 296° West  Level FlightAware Approximate
Wed 05:22:26 PM 33.9181 -118.7222 263° West 287 330 8,300  Level Los Angeles Center
Wed 05:23:00 PM 34.1155 -119.0488 320° Northwest  Level FlightAware Approximate
Wed 05:23:28 PM 33.9103 -118.8114 264° West 296 341 10,200  Level Los Angeles Center
Wed 05:24:00 PM 34.1791 -119.1580 301° West  Level FlightAware Approximate
Wed 05:24:30 PM 33.9033 -118.9200 266° West 326 375 11,700  Level Los Angeles Center
Wed 05:25:32 PM 33.9519 -119.0417 296° West 360 414 13,700 1,790 Climbing Los Angeles Center
Wed 05:26:34 PM 34.0219 -119.1303 314° West 365 420 15,400 1,645 Climbing Los Angeles Center
Wed 05:27:36 PM 34.0917 -119.2211 313° West 370 426 17,100 1,412 Climbing Los Angeles Center
Wed 05:28:50 PM 34.1642 -119.3158 313° West 381 438 18,600 1,489 Climbing Los Angeles Center
Wed 05:29:53 PM 34.2506 -119.4317 312° West 388 447 20,500 1,776 Climbing Los Angeles Center
Wed 05:30:55 PM 34.3392 -119.5494 312° West 393 452 22,300 1,452 Climbing Los Angeles Center
Wed 05:31:57 PM 34.4150 -119.6492 313° West 399 459 23,500 1,161 Climbing Los Angeles Center
Wed 05:32:59 PM 34.4922 -119.7494 313° West 405 466 24,700 1,210 Climbing Los Angeles Center
Wed 05:34:01 PM 34.5747 -119.8464 316° Northwest 411 473 26,000 1,200 Climbing Los Angeles Center
Wed 05:35:04 PM 34.6639 -119.9381 320° Northwest 420 483 27,200 1,008 Climbing Los Angeles Center
Wed 05:36:06 PM 34.7519 -120.0331 318° Northwest 422 486 28,100 732 Climbing Los Angeles Center
Wed 05:37:07 PM 34.8378 -120.1258 318° Northwest 435 501 28,700 629 Climbing Los Angeles Center
Wed 05:38:10 PM 34.9300 -120.2294 317° Northwest 453 521 29,400 624 Climbing Los Angeles Center
Wed 05:39:12 PM 35.0442 -120.3544 318° Northwest 464 534 30,000 242 Climbing Los Angeles Center
Wed 05:40:14 PM 35.1414 -120.4622 318° Northwest 480 552 29,900  Descending Los Angeles Center
Wed 05:41:16 PM 35.2600 -120.5961 317° Northwest 486 559 30,000  Climbing Los Angeles Center
Wed 05:42:19 PM 35.3594 -120.7072 318° Northwest 487 560 29,900  Descending Los Angeles Center
Wed 05:43:21 PM 35.4597 -120.8206 317° Northwest 491 565 30,000 48 Climbing Los Angeles Center
Wed 05:44:23 PM 35.5628 -120.9350 318° Northwest 499 574 30,000  Level Los Angeles Center
Wed 05:45:27 PM 35.6806 -121.0717 317° Northwest 501 577 30,000 -48 Level Oakland Center
Wed 05:46:29 PM 35.7817 -121.1875 317° Northwest 500 575 29,900  Descending Oakland Center
Wed 05:47:30 PM 35.8825 -121.3044 317° Northwest 498 573 30,000  Climbing Oakland Center
Wed 05:48:31 PM 35.9831 -121.4181 318° Northwest 494 568 29,900  Descending Oakland Center
Wed 05:49:33 PM 36.0503 -121.5636 300° West 499 574 30,000 -293 Climbing Oakland Center
Wed 05:50:34 PM 36.1292 -121.6908 308° West 481 554 29,300 -1,672 Descending Oakland Center
Wed 05:51:35 PM 36.2700 -121.7519 341° North 452 520 26,600 -1,951 Descending Oakland Center
Wed 05:52:37 PM 36.3394 -121.8150 324° Northwest 406 467 25,300 -1,659 Descending Oakland Center
Wed 05:53:38 PM 36.3444 -121.9589 273° West 364 419 23,200 -1,951 Descending Oakland Center
Wed 05:54:40 PM 36.3936 -122.0494 304° West 345 397 21,300 -1,561 Descending Oakland Center
Wed 05:55:41 PM 36.4942 -122.0389 North 370 426 20,000 -639 Descending Oakland Center
Wed 05:56:42 PM 36.5889 -122.0125 13° North 356 410 20,000 -488 Level Oakland Center
Wed 05:57:44 PM 36.6844 -121.9836 14° North 354 407 19,000 -1,317 Descending Oakland Center
Wed 05:58:45 PM 36.7789 -121.9767 North 355 409 17,300 -1,851 Descending Oakland Center
Wed 05:59:18 PM 36.8500 -121.9833 356° North 336 387 16,100 -2,000 Descending Northern Cal TRACON
Wed 06:00:18 PM 36.9333 -122.0167 342° North 331 381 14,200 -1,667 Descending Northern Cal TRACON
Wed 06:00:48 PM 36.9603 -122.0203 354° North 333 383 13,600 -1,761 Descending Oakland Center
Wed 06:01:50 PM 37.0631 -122.0461 349° North 318 366 11,500 -1,902 Descending Oakland Center
Wed 06:02:51 PM 37.1244 -122.1139 319° Northwest 309 356 9,700 -1,721 Descending Oakland Center
Wed 06:03:52 PM 37.1736 -122.1922 308° West 291 335 8,000 -829 Descending Oakland Center
Wed 06:04:54 PM 37.2203 -122.2739 306° West 289 333 8,000 -49 Level Oakland Center
Wed 06:05:55 PM 37.2681 -122.3531 307° West 286 329 7,900 -439 Descending Oakland Center
Wed 06:06:57 PM 37.3092 -122.4178 309° West 251 289 7,100 -927 Descending Oakland Center
Wed 06:07:58 PM 37.3694 -122.4486 338° Northwest 251 289 6,000 -537 Descending Oakland Center
Wed 06:09:00 PM 37.4364 -122.4467 North 244 281 6,000 -49 Level Oakland Center
Wed 06:10:01 PM 37.4428 -122.3503 85° East 241 277 5,900  Descending Oakland Center
Wed 06:11:02 PM 37.4206 -122.2831 113° Southeast 219 252 6,000 49 Climbing Oakland Center
Wed 06:12:04 PM 37.3986 -122.2164 112° Southeast 211 243 6,000 -195 Level Oakland Center
Wed 06:13:05 PM 37.3772 -122.1492 112° Southeast 208 239 5,600 -716 Descending Oakland Center
Wed 06:14:18 PM 37.4333 -122.1333 13° North 198 228 4,400 -722 Descending Northern Cal TRACON
Wed 06:15:18 PM 37.4833 -122.1500 345° North 197 227 4,000 -450 Descending Northern Cal TRACON
Wed 06:16:18 PM 37.5333 -122.1667 345° North 181 208 3,500 -700 Descending Northern Cal TRACON
Wed 06:17:18 PM 37.5500 -122.2167 293° West 142 163 2,600 -850 Descending Northern Cal TRACON
Wed 06:18:18 PM 37.5667 -122.2500 302° West 124 143 1,800 -800 Descending Northern Cal TRACON

Login

Don't have an account? Register now (free) for customized features, flight alerts, and more!